Flight Track Log - Related Links

Times and Time Zones

All times are in EDT time to prevent confusion due to time zone crossing. See the SWA1920 flight status page for this flight to view local times or setup timezone preferences in your user account.

Time Position Orientation Groundspeed Altitude Reporting Facility
EDT Latitude Longitude Course Direction KTS MPH feet Rate Location/Type
Fri 11:05:49 PM 45.5778 -122.5797 171° South 200 230 600  Level Seattle Center
Fri 11:06:43 PM 45.5217 -122.5664 181° South 234 269 3,300 2,737 Climbing Seattle Center
Fri 11:07:43 PM 45.4675 -122.5672 176° South 241 277 5,800 2,430 Climbing Seattle Center
Fri 11:08:44 PM 45.3964 -122.5600 120° Southeast 252 290 8,200 2,656 Climbing Seattle Center
Fri 11:09:45 PM 45.3461 -122.4383 115° Southeast 298 343 11,200 2,508 Climbing Seattle Center
Fri 11:10:46 PM 45.3114 -122.3308 137° Southeast 300 345 13,300 1,967 Climbing Seattle Center
Fri 11:11:47 PM 45.2403 -122.2364 137° Southeast 348 400 15,200 2,016 Climbing Seattle Center
Fri 11:12:48 PM 45.1667 -122.1386 137° Southeast 360 414 17,400 1,820 Climbing Seattle Center
Fri 11:13:49 PM 45.0919 -122.0397 136° Southeast 363 418 18,900 1,820 Climbing Seattle Center
Fri 11:14:50 PM 44.9992 -121.9153 137° Southeast 386 444 21,100 1,869 Climbing Seattle Center
Fri 11:15:51 PM 44.9200 -121.8114 137° Southeast 419 482 22,700 1,574 Climbing Seattle Center
Fri 11:16:52 PM 44.8331 -121.6986 137° Southeast 429 494 24,300 1,574 Climbing Seattle Center
Fri 11:17:53 PM 44.7433 -121.5828 137° Southeast 438 504 25,900 1,574 Climbing Seattle Center
Fri 11:18:54 PM 44.6531 -121.4653 137° Southeast 443 510 27,500 1,377 Climbing Seattle Center
Fri 11:19:55 PM 44.5508 -121.3319 138° Southeast 450 518 28,700 1,230 Climbing Seattle Center
Fri 11:20:56 PM 44.4550 -121.2094 137° Southeast 460 529 30,000 1,328 Climbing Seattle Center
Fri 11:21:57 PM 44.3553 -121.0814 138° Southeast 462 532 31,400 1,426 Climbing Seattle Center
Fri 11:22:58 PM 44.2625 -120.9639 137° Southeast 457 526 32,900 1,180 Climbing Seattle Center
Fri 11:23:59 PM 44.1711 -120.8469 138° Southeast 452 520 33,800 934 Climbing Seattle Center
Fri 11:25:00 PM 44.0794 -120.7331 138° Southeast 448 516 34,800 590 Climbing Seattle Center
Fri 11:26:01 PM 43.9883 -120.6203 138° Southeast 445 512 35,000 98 Climbing Seattle Center
Fri 11:27:02 PM 43.8975 -120.5058 137° Southeast 445 512 35,000  Level Seattle Center
Fri 11:28:03 PM 43.8083 -120.3892 136° Southeast 445 512 35,000  Level Seattle Center
Fri 11:29:04 PM 43.7200 -120.2708 136° Southeast 446 513 35,000  Level Seattle Center
Fri 11:30:05 PM 43.6117 -120.1289 136° Southeast 450 518 35,000  Level Seattle Center
Fri 11:31:05 PM 43.5219 -120.0094 135° Southeast 452 520 35,000  Level Seattle Center
Fri 11:32:06 PM 43.4342 -119.8883 137° Southeast 451 519 35,000  Level Seattle Center
Fri 11:33:07 PM 43.3467 -119.7775 137° Southeast 439 505 35,000  Level Seattle Center
Fri 11:34:08 PM 43.2578 -119.6644 137° Southeast 433 498 35,000  Level Seattle Center
Fri 11:35:09 PM 43.1694 -119.5506 136° Southeast 433 498 35,000  Level Seattle Center
Fri 11:36:10 PM 43.0819 -119.4364 137° Southeast 434 499 35,000  Level Seattle Center
Fri 11:37:11 PM 42.9939 -119.3239 137° Southeast 433 498 35,000  Level Seattle Center
Fri 11:38:12 PM 42.9006 -119.2061 137° Southeast 437 503 35,000  Level Seattle Center
Fri 11:39:13 PM 42.8022 -119.0797 137° Southeast 436 502 35,000  Level Seattle Center
Fri 11:40:13 PM 42.7281 -118.9850 137° Southeast 432 497 35,000  Level Seattle Center
Fri 11:41:14 PM 42.6350 -118.8667 137° Southeast 431 496 35,000  Level Seattle Center
Fri 11:42:15 PM 42.5344 -118.7417 137° Southeast 436 502 35,000  Level Seattle Center
Fri 11:43:16 PM 42.4608 -118.6489 138° Southeast 437 503 35,000  Level Seattle Center
Fri 11:44:17 PM 42.3631 -118.5283 137° Southeast 437 503 35,000  Level Seattle Center
Fri 11:45:18 PM 42.2631 -118.4028 138° Southeast 439 505 35,000  Level Seattle Center
Fri 11:46:19 PM 42.1764 -118.2975 137° Southeast 441 507 35,000  Level Seattle Center
Fri 11:47:20 PM 42.0911 -118.1911 137° Southeast 438 504 35,000  Level Seattle Center
Fri 11:48:21 PM 41.9919 -118.0689 138° Southeast 435 501 35,000  Level Seattle Center
Fri 11:49:21 PM 41.9081 -117.9675 138° Southeast 428 493 35,000  Level Seattle Center
Fri 11:50:48 PM 41.7822 -117.8139 138° Southeast 427 491 35,000  Level Salt Lake Center
Fri 11:51:50 PM 41.7006 -117.7150 138° Southeast 422 486 35,000  Level Salt Lake Center
Fri 11:52:51 PM 41.6047 -117.5994 138° Southeast 417 480 35,000  Level Salt Lake Center
Fri 11:53:52 PM 41.5231 -117.5011 138° Southeast 415 478 35,000  Level Salt Lake Center
Fri 11:54:54 PM 41.4417 -117.4050 138° Southeast 411 473 35,000  Level Salt Lake Center
Fri 11:55:55 PM 41.3472 -117.2914 138° Southeast 409 471 35,000  Level Salt Lake Center
Fri 11:56:57 PM 41.2669 -117.1967 138° Southeast 405 466 35,000  Level Salt Lake Center
Fri 11:57:58 PM 41.1733 -117.0867 138° Southeast 402 463 35,000  Level Salt Lake Center
Fri 11:59:00 PM 41.0928 -116.9914 138° Southeast 403 464 35,000  Level Salt Lake Center
Sat 12:00:01 AM 41.0122 -116.8964 139° Southeast 403 464 35,000  Level Salt Lake Center
Sat 12:01:03 AM 40.9164 -116.7844 139° Southeast 406 467 35,000  Level Salt Lake Center
Sat 12:02:04 AM 40.8344 -116.6889 139° Southeast 408 470 35,000  Level Salt Lake Center
Sat 12:03:06 AM 40.7397 -116.5786 139° Southeast 405 466 35,000  Level Salt Lake Center
Sat 12:04:07 AM 40.6594 -116.4853 138° Southeast 402 463 35,000  Level Salt Lake Center
Sat 12:05:09 AM 40.5800 -116.3925 139° Southeast 398 458 35,000  Level Salt Lake Center
Sat 12:06:10 AM 40.4883 -116.2883 139° Southeast 391 450 35,000  Level Salt Lake Center
Sat 12:07:11 AM 40.4094 -116.1992 139° Southeast 389 448 35,000  Level Salt Lake Center
Sat 12:08:13 AM 40.3319 -116.1100 139° Southeast 387 445 35,000  Level Salt Lake Center
Sat 12:09:14 AM 40.2419 -116.0069 139° Southeast 384 442 35,000  Level Salt Lake Center
Sat 12:10:16 AM 40.1656 -115.9203 139° Southeast 381 438 35,000  Level Salt Lake Center
Sat 12:11:17 AM 40.0778 -115.8203 139° Southeast 377 434 35,000  Level Salt Lake Center
Sat 12:12:19 AM 40.0039 -115.7353 140° Southeast 372 428 35,000  Level Salt Lake Center
Sat 12:13:21 AM 39.9269 -115.6519 140° Southeast 373 429 35,000  Level Salt Lake Center
Sat 12:14:22 AM 39.8375 -115.5547 139° Southeast 375 432 35,000  Level Salt Lake Center
Sat 12:15:24 AM 39.7617 -115.4683 138° Southeast 376 433 35,000  Level Salt Lake Center
Sat 12:16:25 AM 39.6744 -115.3664 139° Southeast 377 434 35,000  Level Salt Lake Center
Sat 12:17:27 AM 39.5969 -115.2800 140° Southeast 375 432 35,000  Level Salt Lake Center
Sat 12:18:29 AM 39.5217 -115.1975 140° Southeast 378 435 35,000  Level Salt Lake Center
Sat 12:19:30 AM 39.4308 -115.0975 142° Southeast 381 438 35,000  Level Salt Lake Center
Sat 12:20:32 AM 39.3494 -115.0156 139° Southeast 384 442 35,000  Level Salt Lake Center
Sat 12:21:33 AM 39.2592 -114.9158 140° Southeast 384 442 35,000  Level Salt Lake Center
Sat 12:22:35 AM 39.1839 -114.8339 139° Southeast 374 430 35,000  Level Salt Lake Center
Sat 12:23:37 AM 39.0975 -114.7361 139° Southeast 371 427 35,000  Level Salt Lake Center
Sat 12:24:38 AM 39.0169 -114.6469 140° Southeast 374 430 35,000  Level Salt Lake Center
Sat 12:25:40 AM 38.9369 -114.5606 140° Southeast 372 428 35,000  Level Salt Lake Center
Sat 12:26:41 AM 38.8547 -114.4708 140° Southeast 377 434 35,000  Level Salt Lake Center
Sat 12:27:43 AM 38.7711 -114.3811 140° Southeast 383 441 35,000  Level Salt Lake Center
Sat 12:28:45 AM 38.6867 -114.2911 141° Southeast 388 447 35,000  Level Salt Lake Center
Sat 12:29:46 AM 38.6019 -114.2022 140° Southeast 387 445 35,000  Level Salt Lake Center
Sat 12:30:48 AM 38.5164 -114.1111 140° Southeast 391 450 35,000  Level Salt Lake Center
Sat 12:31:50 AM 38.4300 -114.0194 141° Southeast 395 455 35,000  Level Salt Lake Center
Sat 12:32:51 AM 38.3433 -113.9292 140° Southeast 397 457 35,000  Level Salt Lake Center
Sat 12:33:53 AM 38.2572 -113.8369 140° Southeast 396 456 35,000  Level Salt Lake Center
Sat 12:34:55 AM 38.1703 -113.7456 141° Southeast 398 458 35,000  Level Salt Lake Center
Sat 12:35:56 AM 38.0822 -113.6564 140° Southeast 399 459 35,000  Level Salt Lake Center
Sat 12:36:58 AM 37.9953 -113.5653 144° Southeast 400 460 35,000  Level Salt Lake Center
Sat 12:37:59 AM 37.9042 -113.4825 154° Southeast 398 458 35,000  Level Salt Lake Center
Sat 12:39:01 AM 37.8103 -113.4253 155° Southeast 383 441 35,000  Level Salt Lake Center
Sat 12:40:03 AM 37.7119 -113.3664 155° Southeast 385 443 35,000  Level Salt Lake Center
Sat 12:41:04 AM 37.5969 -113.2972 154° Southeast 380 437 35,000  Level Salt Lake Center
Sat 12:42:06 AM 37.5000 -113.2378 154° Southeast 382 440 35,000  Level Salt Lake Center
Sat 12:43:07 AM 37.4028 -113.1786 154° Southeast 385 443 35,000  Level Salt Lake Center
Sat 12:44:09 AM 37.3039 -113.1189 154° Southeast 388 447 35,000  Level Salt Lake Center
Sat 12:45:10 AM 37.2056 -113.0594 155° Southeast 389 448 35,000 -293 Level Salt Lake Center
Sat 12:46:12 AM 37.1075 -113.0014 154° Southeast 387 445 34,400 -829 Descending Salt Lake Center
Sat 12:47:13 AM 37.0081 -112.9414 154° Southeast 389 448 33,300 -683 Descending Salt Lake Center
Sat 12:48:15 AM 36.9083 -112.8814 155° Southeast 391 450 33,000 -146 Descending Salt Lake Center
Sat 12:49:16 AM 36.8097 -112.8233 155° Southeast 390 449 33,000  Level Salt Lake Center
Sat 12:50:18 AM 36.7097 -112.7653 154° Southeast 388 447 33,000  Level Salt Lake Center
Sat 12:51:40 AM 36.5722 -112.6800 156° South 389 448 33,000  Level Los Angeles Center
Sat 12:52:40 AM 36.4578 -112.6153 154° Southeast 394 453 33,000  Level Los Angeles Center
Sat 12:53:40 AM 36.3581 -112.5550 157° South 394 453 33,000  Level Los Angeles Center
Sat 12:54:40 AM 36.2519 -112.4981 153° Southeast 404 465 33,000 -300 Level Los Angeles Center
Sat 12:55:40 AM 36.1522 -112.4358 166° South 404 465 32,400 -750 Descending Los Angeles Center
Sat 12:56:40 AM 36.0428 -112.4022 183° South 404 465 31,500 -950 Descending Los Angeles Center
Sat 12:57:40 AM 35.9303 -112.4100 182° South 396 456 30,500 -743 Descending Los Angeles Center
Sat 01:00:02 AM 35.6758 -112.4189 182° South 401 461 29,000 -446 Descending Albuquerque Center
Sat 01:01:02 AM 35.5650 -112.4247 185° South 406 467 29,000  Level Albuquerque Center
Sat 01:02:02 AM 35.4539 -112.4356 176° South 406 467 29,000  Level Albuquerque Center
Sat 01:03:02 AM 35.3436 -112.4261 170° South 406 467 29,000  Level Albuquerque Center
Sat 01:04:02 AM 35.2342 -112.4014 169° South 400 460 29,000  Level Albuquerque Center
Sat 01:05:02 AM 35.1228 -112.3742 169° South 405 466 29,000  Level Albuquerque Center
Sat 01:06:02 AM 35.0153 -112.3497 170° South 405 466 29,000  Level Albuquerque Center
Sat 01:07:02 AM 34.9056 -112.3253 169° South 405 466 29,000  Level Albuquerque Center
Sat 01:08:02 AM 34.7961 -112.2983 170° South 405 466 29,000 -50 Level Albuquerque Center
Sat 01:09:02 AM 34.6886 -112.2742 170° South 405 466 28,900 -1,600 Descending Albuquerque Center
Sat 01:10:02 AM 34.5769 -112.2497 170° South 405 466 25,800 -2,850 Descending Albuquerque Center
Sat 01:11:02 AM 34.4672 -112.2256 168° South 410 472 23,200 -2,500 Descending Albuquerque Center
Sat 01:12:02 AM 34.3639 -112.1994 170° South 398 458 20,800 -2,450 Descending Albuquerque Center
Sat 01:13:02 AM 34.2583 -112.1781 168° South 374 430 18,300 -1,900 Descending Albuquerque Center
Sat 01:14:02 AM 34.1697 -112.1553 171° South 347 399 17,000 -1,300 Descending Albuquerque Center
Sat 01:15:02 AM 34.0744 -112.1372 167° South 340 391 15,700 -1,200 Descending Albuquerque Center
Sat 01:16:02 AM 33.9856 -112.1122 167° South 335 386 14,600 -1,652 Descending Albuquerque Center
Sat 01:18:29 AM 33.7667 -112.0500 171° South 327 376 10,000 -1,362 Descending Phoenix TRACON
Sat 01:19:29 AM 33.6833 -112.0333 180° South 260 299 9,900 -368 Descending Phoenix TRACON
Sat 01:20:23 AM 33.6333 -112.0333 168° South 235 270 9,300 -632 Descending Phoenix TRACON
Sat 01:21:23 AM 33.5667 -112.0167 132° Southeast 235 270 8,700 -905 Descending Phoenix TRACON
Sat 01:22:29 AM 33.5167 -111.9500 76° East 260 299 7,400 -1,048 Descending Phoenix TRACON
Sat 01:23:29 AM 33.5333 -111.8667 107° East 260 299 6,500 -1,000 Descending Phoenix TRACON
Sat 01:24:29 AM 33.5167 -111.8000 196° South 218 251 5,400 -1,096 Descending Phoenix TRACON
Sat 01:25:24 AM 33.4667 -111.8167 220° Southwest 187 215 4,400 -991 Descending Phoenix TRACON
Sat 01:26:24 AM 33.4333 -111.8500 270° West 155 178 3,500 -850 Descending Phoenix TRACON
Sat 01:27:24 AM 33.4333 -111.9000 270° West 163 188 2,700 -800 Descending Phoenix TRACON

Login

Don't have an account? Register now (free) for customized features, flight alerts, and more!